Rechercher aéroport 
image banner adimage banner adimage banner ad
image banner ad

KMOD - Modesto City-Co-Harry Sham Fld

Situé à Modesto, United States

ICAO - MOD, IATA - MOD

Données fournies par Airmate  

Information générale

Coordonnées: N37°37'33" W120°57'16"
Élévation : 99 feet MSL.
Variation magnétique : 16° East
Voir autres Aéroports à California

Données opérationnelles

Special qualification required
Heure actuelle UTC:
Heure actuelle locale:
Météo
METAR: KMOD 260853Z AUTO 34009KT 10SM CLR 16/11 A2994 RMK AO2 SLP138 T01610111 51011
TAF: KMOD 260537Z 2606/2706 35006KT P6SM SKC FM261100 32006KT P6SM BKN250 FM262200 33007KT P6SM SCT250
Voir NOTAMs / SUP AIP / TFR affectant cet aéroport [VIEW]
Fréquences de communication: [VIEW]

Pistes:

Identifiant RWYQFULongueur (ft)Largeur (ft)SurfaceLDA (ft)
10R124°3464100ASPH3464
28L304°3464100ASPH3464
10L124°5904150ASPH5904
28R304°5904150ASPH5904

Coordonnées de l'aéroport

Adresse: Modesto United States

Vue satellite de KMOD